Time;durP1;ratioP1;P1;durP2;ratioP2;P2;SDS_P1;SDS_P2;PMS_P1;PMS_P2;Temp;Humidity;BMP_temperature;BMP_pressure;BME280_temperature;BME280_humidity;BME280_pressure;Samples;Min_cycle;Max_cycle;Signal;HPM_P1;HPM_P2
2022/09/24 00:00:50;;;;;;;1999.90;999.90;;;;;;;;;;5043088;28;20416;-71
2022/09/24 00:03:20;;;;;;;1999.90;999.90;;;;;;;;;;5046286;28;20402;-71
2022/09/24 00:05:48;;;;;;;1999.90;999.90;;;;;;;;;;5045183;28;20444;-71
2022/09/24 00:08:17;;;;;;;1999.90;999.90;;;;;;;;;;5044409;28;20491;-71
2022/09/24 00:10:45;;;;;;;1999.90;999.90;;;;;;;;;;5046523;28;20411;-72
2022/09/24 00:13:15;;;;;;;1999.90;999.90;;;;;;;;;;5057409;28;20412;-71
2022/09/24 00:15:44;;;;;;;1999.90;999.90;;;;;;;;;;5044247;28;20424;-71
2022/09/24 00:18:12;;;;;;;1999.90;999.90;;;;;;;;;;5054530;28;20446;-72
2022/09/24 00:20:41;;;;;;;1999.90;999.90;;;;;;;;;;5044779;28;20932;-72
2022/09/24 00:23:09;;;;;;;1999.90;999.90;;;;;;;;;;5041209;28;20411;-72
2022/09/24 00:28:25;;;;;;;1999.90;999.90;;;;;;;;;;5040551;28;20389;-71
2022/09/24 00:30:52;;;;;;;1999.90;999.90;;;;;;;;;;5043175;28;20412;-71
2022/09/24 00:33:20;;;;;;;1999.90;999.90;;;;;;;;;;5043335;28;20408;-71
2022/09/24 00:35:51;;;;;;;1999.90;999.90;;;;;;;;;;5042432;28;20884;-71
2022/09/24 00:38:19;;;;;;;1999.90;999.90;;;;;;;;;;5042648;28;20432;-72
2022/09/24 00:40:47;;;;;;;1999.90;999.90;;;;;;;;;;5041411;28;20420;-72
2022/09/24 00:43:22;;;;;;;1999.90;999.90;;;;;;;;;;5042963;28;20510;-71
2022/09/24 00:45:50;;;;;;;1999.90;999.90;;;;;;;;;;5040888;28;20977;-72
2022/09/24 00:48:18;;;;;;;1999.90;999.90;;;;;;;;;;5036694;28;20921;-71
2022/09/24 00:50:45;;;;;;;1999.90;999.90;;;;;;;;;;5041758;28;20436;-72
2022/09/24 00:53:16;;;;;;;1999.90;999.90;;;;;;;;;;5045397;28;20502;-72
2022/09/24 00:55:46;;;;;;;1999.90;999.90;;;;;;;;;;5041589;28;20492;-72
2022/09/24 00:58:14;;;;;;;1999.90;999.90;;;;;;;;;;5041730;28;20394;-72
2022/09/24 01:00:43;;;;;;;1999.90;999.90;;;;;;;;;;5045865;28;20416;-72
2022/09/24 01:03:12;;;;;;;1999.90;999.90;;;;;;;;;;5039276;28;20397;-72
2022/09/24 01:05:40;;;;;;;1999.90;999.90;;;;;;;;;;5042294;28;20418;-72
2022/09/24 01:08:11;;;;;;;1999.90;999.90;;;;;;;;;;5042747;28;21670;-72
2022/09/24 01:10:50;;;;;;;1999.90;999.90;;;;;;;;;;5047426;28;20992;-72
2022/09/24 01:13:31;;;;;;;1999.90;999.90;;;;;;;;;;5044099;28;21151;-73
2022/09/24 01:16:00;;;;;;;1999.90;999.90;;;;;;;;;;5042356;28;21300;-72
2022/09/24 01:18:33;;;;;;;1999.90;999.90;;;;;;;;;;5045579;28;20411;-72
2022/09/24 01:21:15;;;;;;;1999.90;999.90;;;;;;;;;;5043142;28;20412;-72
2022/09/24 01:23:46;;;;;;;1999.90;999.90;;;;;;;;;;5048545;28;20910;-72
2022/09/24 01:26:29;;;;;;;1999.90;999.90;;;;;;;;;;5043023;28;20423;-72
2022/09/24 01:29:04;;;;;;;1999.90;999.90;;;;;;;;;;5028352;28;20457;-70
2022/09/24 01:31:36;;;;;;;1999.90;999.90;;;;;;;;;;5045581;28;20415;-70
2022/09/24 01:34:05;;;;;;;1999.90;999.90;;;;;;;;;;5045633;28;20408;-70
2022/09/24 01:36:34;;;;;;;1999.90;999.90;;;;;;;;;;5040847;28;20443;-70
2022/09/24 01:39:03;;;;;;;1999.90;999.90;;;;;;;;;;5044115;28;20442;-71
2022/09/24 01:41:32;;;;;;;1999.90;999.90;;;;;;;;;;5046543;28;20407;-71
2022/09/24 01:44:03;;;;;;;1999.90;999.90;;;;;;;;;;5044478;28;20386;-71
2022/09/24 01:46:31;;;;;;;1999.90;999.90;;;;;;;;;;5047216;28;20808;-71
2022/09/24 01:49:00;;;;;;;1999.90;999.90;;;;;;;;;;5045847;28;20480;-71
2022/09/24 01:51:30;;;;;;;1999.90;999.90;;;;;;;;;;5045293;28;20484;-71
2022/09/24 01:54:00;;;;;;;1999.90;999.90;;;;;;;;;;5047842;28;20385;-71
2022/09/24 01:56:30;;;;;;;1999.90;999.90;;;;;;;;;;5051573;28;20511;-71
2022/09/24 01:59:00;;;;;;;1999.90;999.90;;;;;;;;;;5047012;28;20427;-71
2022/09/24 02:01:29;;;;;;;1999.90;999.90;;;;;;;;;;5044648;28;20422;-69
2022/09/24 02:03:59;;;;;;;1999.90;999.90;;;;;;;;;;5044875;28;20402;-71
2022/09/24 02:06:31;;;;;;;1999.90;999.90;;;;;;;;;;5044033;28;21227;-70
2022/09/24 02:08:59;;;;;;;1999.90;999.90;;;;;;;;;;5044807;28;20453;-71
2022/09/24 02:11:27;;;;;;;1999.90;999.90;;;;;;;;;;5048153;28;20412;-71
2022/09/24 02:13:59;;;;;;;1999.90;999.90;;;;;;;;;;5042686;28;20394;-70
2022/09/24 02:16:29;;;;;;;1999.90;999.90;;;;;;;;;;5040530;28;20395;-70
2022/09/24 02:18:59;;;;;;;1999.90;999.90;;;;;;;;;;5049649;28;20399;-71
2022/09/24 02:21:27;;;;;;;1999.90;999.90;;;;;;;;;;5046913;28;20514;-71
2022/09/24 02:23:59;;;;;;;1999.90;999.90;;;;;;;;;;5043209;28;21012;-70
2022/09/24 02:26:27;;;;;;;1999.90;999.90;;;;;;;;;;5045657;28;20386;-71
2022/09/24 02:28:54;;;;;;;1999.90;999.90;;;;;;;;;;5045195;28;20393;-71
2022/09/24 02:31:26;;;;;;;1999.90;999.90;;;;;;;;;;5044427;28;20431;-72
2022/09/24 02:36:39;;;;;;;1999.90;999.90;;;;;;;;;;5028112;28;20459;-72
2022/09/24 02:39:08;;;;;;;1999.90;999.90;;;;;;;;;;5047058;28;20400;-72
2022/09/24 02:41:36;;;;;;;1999.90;999.90;;;;;;;;;;5061742;28;20423;-72
2022/09/24 02:44:04;;;;;;;1999.90;999.90;;;;;;;;;;5026443;28;20440;-71
2022/09/24 02:46:32;;;;;;;1999.90;999.90;;;;;;;;;;5043891;28;20396;-72
2022/09/24 02:48:59;;;;;;;1999.90;999.90;;;;;;;;;;5044996;28;20436;-71
2022/09/24 02:51:27;;;;;;;1999.90;999.90;;;;;;;;;;5046541;28;21656;-72
2022/09/24 02:53:55;;;;;;;1999.90;999.90;;;;;;;;;;5026429;28;20394;-71
2022/09/24 02:56:24;;;;;;;1999.90;999.90;;;;;;;;;;5046396;28;20408;-71
2022/09/24 02:58:52;;;;;;;1999.90;999.90;;;;;;;;;;5043876;28;21235;-72
2022/09/24 03:01:21;;;;;;;1999.90;999.90;;;;;;;;;;5041122;28;20392;-71
2022/09/24 03:03:49;;;;;;;1999.90;999.90;;;;;;;;;;5048890;28;20954;-71
2022/09/24 03:06:16;;;;;;;1999.90;999.90;;;;;;;;;;5043211;28;20398;-70
2022/09/24 03:08:44;;;;;;;1999.90;999.90;;;;;;;;;;5046515;28;20527;-71
2022/09/24 03:11:12;;;;;;;1999.90;999.90;;;;;;;;;;5043235;28;20505;-71
2022/09/24 03:13:47;;;;;;;1999.90;999.90;;;;;;;;;;5047251;28;20449;-71
2022/09/24 03:16:15;;;;;;;1999.90;999.90;;;;;;;;;;5043427;28;20879;-71
2022/09/24 03:18:43;;;;;;;1999.90;999.90;;;;;;;;;;5045972;28;20948;-71
2022/09/24 03:21:11;;;;;;;1999.90;999.90;;;;;;;;;;5044203;28;21011;-71
2022/09/24 03:23:40;;;;;;;1999.90;999.90;;;;;;;;;;5043598;28;20458;-71
2022/09/24 03:26:08;;;;;;;1999.90;999.90;;;;;;;;;;5043740;28;20447;-71
2022/09/24 03:28:36;;;;;;;1999.90;999.90;;;;;;;;;;5047962;28;20437;-71
2022/09/24 03:31:04;;;;;;;1999.90;999.90;;;;;;;;;;5048850;28;20410;-72
2022/09/24 03:33:33;;;;;;;1999.90;999.90;;;;;;;;;;5048916;28;20410;-71
2022/09/24 03:36:02;;;;;;;1999.90;999.90;;;;;;;;;;5043499;28;20400;-71
2022/09/24 03:38:30;;;;;;;1999.90;999.90;;;;;;;;;;5045931;28;20396;-71
2022/09/24 03:40:58;;;;;;;1999.90;999.90;;;;;;;;;;5043334;28;20529;-71
2022/09/24 03:43:26;;;;;;;1999.90;999.90;;;;;;;;;;5043761;28;20385;-71
2022/09/24 03:45:54;;;;;;;1999.90;999.90;;;;;;;;;;5047424;28;20470;-71
2022/09/24 03:48:24;;;;;;;1999.90;999.90;;;;;;;;;;5046249;28;21174;-71
2022/09/24 03:50:52;;;;;;;1999.90;999.90;;;;;;;;;;5045753;28;20435;-70
2022/09/24 03:53:20;;;;;;;1999.90;999.90;;;;;;;;;;5046159;28;20434;-71
2022/09/24 03:55:49;;;;;;;1999.90;999.90;;;;;;;;;;5047276;28;20890;-71
2022/09/24 03:58:17;;;;;;;1999.90;999.90;;;;;;;;;;5046341;28;20405;-71
2022/09/24 04:00:44;;;;;;;1999.90;999.90;;;;;;;;;;5041266;28;20446;-72
2022/09/24 04:03:12;;;;;;;1999.90;999.90;;;;;;;;;;5046307;28;20418;-71
2022/09/24 04:05:42;;;;;;;1999.90;999.90;;;;;;;;;;5047397;28;20444;-71
2022/09/24 04:08:09;;;;;;;1999.90;999.90;;;;;;;;;;5046292;28;20585;-71
2022/09/24 04:10:37;;;;;;;1999.90;999.90;;;;;;;;;;5044710;28;20506;-73
2022/09/24 04:13:04;;;;;;;1999.90;999.90;;;;;;;;;;5046778;28;20559;-71
2022/09/24 04:15:33;;;;;;;1999.90;999.90;;;;;;;;;;5049836;28;20424;-71
2022/09/24 04:18:00;;;;;;;1999.90;999.90;;;;;;;;;;5044787;28;20408;-71
2022/09/24 04:20:29;;;;;;;1999.90;999.90;;;;;;;;;;5041562;28;20466;-71
2022/09/24 04:22:58;;;;;;;1999.90;999.90;;;;;;;;;;5049076;28;20819;-71
2022/09/24 04:25:27;;;;;;;1999.90;999.90;;;;;;;;;;5027652;28;20412;-71
2022/09/24 04:27:55;;;;;;;1999.90;999.90;;;;;;;;;;5047326;28;20478;-71
2022/09/24 04:30:23;;;;;;;1999.90;999.90;;;;;;;;;;5042544;28;20531;-72
2022/09/24 04:32:51;;;;;;;1999.90;999.90;;;;;;;;;;5041932;28;20462;-71
2022/09/24 04:35:19;;;;;;;1999.90;999.90;;;;;;;;;;5042653;28;20447;-71
2022/09/24 04:37:47;;;;;;;1999.90;999.90;;;;;;;;;;5043396;28;20388;-71
2022/09/24 04:40:16;;;;;;;1999.90;999.90;;;;;;;;;;5042439;28;20406;-71
2022/09/24 04:42:45;;;;;;;1999.90;999.90;;;;;;;;;;5043532;28;20390;-70
2022/09/24 04:45:14;;;;;;;1999.90;999.90;;;;;;;;;;5029861;28;20492;-71
2022/09/24 04:47:41;;;;;;;1999.90;999.90;;;;;;;;;;5044426;28;20397;-72
2022/09/24 04:50:10;;;;;;;1999.90;999.90;;;;;;;;;;5043557;28;20420;-72
2022/09/24 04:52:40;;;;;;;1999.90;999.90;;;;;;;;;;5044324;28;20408;-71
2022/09/24 04:55:08;;;;;;;1999.90;999.90;;;;;;;;;;5044080;28;20532;-71
2022/09/24 04:57:37;;;;;;;1999.90;999.90;;;;;;;;;;5042617;28;20416;-71
2022/09/24 05:00:07;;;;;;;1999.90;999.90;;;;;;;;;;5046921;28;20837;-71
2022/09/24 05:02:35;;;;;;;1999.90;999.90;;;;;;;;;;5042958;28;20432;-71
2022/09/24 05:05:03;;;;;;;1999.90;999.90;;;;;;;;;;5040487;28;20413;-71
2022/09/24 05:07:30;;;;;;;1999.90;999.90;;;;;;;;;;5045757;28;20415;-72
2022/09/24 05:09:58;;;;;;;1999.90;999.90;;;;;;;;;;5044603;28;20892;-71
2022/09/24 05:12:26;;;;;;;1999.90;999.90;;;;;;;;;;5042030;28;20838;-71
2022/09/24 05:14:55;;;;;;;1999.90;999.90;;;;;;;;;;5043431;28;20535;-70
2022/09/24 05:17:22;;;;;;;1999.90;999.90;;;;;;;;;;5040741;28;20501;-71
2022/09/24 05:19:50;;;;;;;1999.90;999.90;;;;;;;;;;5038574;28;20412;-71
2022/09/24 05:22:19;;;;;;;1999.90;999.90;;;;;;;;;;5039503;28;20466;-71
2022/09/24 05:24:47;;;;;;;1999.90;999.90;;;;;;;;;;5038603;28;20906;-71
2022/09/24 05:27:13;;;;;;;1999.90;999.90;;;;;;;;;;5041878;28;20391;-71
2022/09/24 05:29:42;;;;;;;1999.90;999.90;;;;;;;;;;5042989;28;20559;-71
2022/09/24 05:32:12;;;;;;;1999.90;999.90;;;;;;;;;;5039453;28;20416;-70
2022/09/24 05:34:42;;;;;;;1999.90;999.90;;;;;;;;;;5036851;28;20523;-71
2022/09/24 05:37:10;;;;;;;1999.90;999.90;;;;;;;;;;5040020;28;20499;-71
2022/09/24 05:39:37;;;;;;;1999.90;999.90;;;;;;;;;;5044764;28;20494;-71
2022/09/24 05:42:07;;;;;;;1999.90;999.90;;;;;;;;;;5040323;28;20400;-71
2022/09/24 05:44:35;;;;;;;1999.90;999.90;;;;;;;;;;5040172;28;20402;-71
2022/09/24 05:47:02;;;;;;;1999.90;999.90;;;;;;;;;;5042452;28;20404;-71
2022/09/24 05:49:31;;;;;;;1999.90;999.90;;;;;;;;;;5040715;28;20411;-69
2022/09/24 05:52:00;;;;;;;1999.90;999.90;;;;;;;;;;5043569;28;20398;-69
2022/09/24 05:54:28;;;;;;;1999.90;999.90;;;;;;;;;;5045547;28;21099;-71
2022/09/24 05:56:55;;;;;;;1999.90;999.90;;;;;;;;;;5045794;28;20397;-71
2022/09/24 05:59:23;;;;;;;1999.90;999.90;;;;;;;;;;5042736;28;20477;-71
2022/09/24 06:01:51;;;;;;;1999.90;999.90;;;;;;;;;;5046287;28;20778;-71
2022/09/24 06:04:19;;;;;;;1999.90;999.90;;;;;;;;;;5042250;28;20474;-71
2022/09/24 06:06:49;;;;;;;1999.90;999.90;;;;;;;;;;5049645;28;20824;-71
2022/09/24 06:09:16;;;;;;;1999.90;999.90;;;;;;;;;;5046824;28;20398;-71
2022/09/24 06:11:44;;;;;;;1999.90;999.90;;;;;;;;;;5041980;28;20458;-72
2022/09/24 06:14:13;;;;;;;1999.90;999.90;;;;;;;;;;5045705;28;20523;-72
2022/09/24 06:16:41;;;;;;;1999.90;999.90;;;;;;;;;;5061160;28;21181;-72
2022/09/24 06:19:09;;;;;;;1999.90;999.90;;;;;;;;;;5042585;28;20435;-71
2022/09/24 06:21:37;;;;;;;1999.90;999.90;;;;;;;;;;5042611;28;22383;-72
2022/09/24 06:24:06;;;;;;;1999.90;999.90;;;;;;;;;;5042032;28;20421;-71
2022/09/24 06:26:35;;;;;;;1999.90;999.90;;;;;;;;;;5041566;28;20471;-72
2022/09/24 06:29:02;;;;;;;1999.90;999.90;;;;;;;;;;5044141;28;21005;-72
2022/09/24 06:31:33;;;;;;;1999.90;999.90;;;;;;;;;;5043949;28;20484;-72
2022/09/24 06:34:02;;;;;;;1999.90;999.90;;;;;;;;;;5046392;28;20404;-71
2022/09/24 06:36:29;;;;;;;1999.90;999.90;;;;;;;;;;5044403;28;20495;-72
2022/09/24 06:38:58;;;;;;;1999.90;999.90;;;;;;;;;;5046769;28;20463;-72
2022/09/24 06:41:27;;;;;;;1999.90;999.90;;;;;;;;;;5043481;28;21546;-72
2022/09/24 06:43:55;;;;;;;1999.90;999.90;;;;;;;;;;5045249;28;20503;-72
2022/09/24 06:46:24;;;;;;;1999.90;999.90;;;;;;;;;;5048143;28;20400;-72
2022/09/24 06:48:53;;;;;;;1999.90;999.90;;;;;;;;;;5044322;28;20502;-72
2022/09/24 06:51:21;;;;;;;1999.90;999.90;;;;;;;;;;5044868;28;20420;-72
2022/09/24 06:53:50;;;;;;;1999.90;999.90;;;;;;;;;;5039862;28;20424;-72
2022/09/24 06:56:18;;;;;;;1999.90;999.90;;;;;;;;;;5045704;28;20397;-71
2022/09/24 06:58:47;;;;;;;1999.90;999.90;;;;;;;;;;5043380;28;20408;-72
2022/09/24 07:01:15;;;;;;;1999.90;999.90;;;;;;;;;;5042637;28;20423;-71
2022/09/24 07:03:42;;;;;;;1999.90;999.90;;;;;;;;;;5047211;28;20521;-72
2022/09/24 07:06:10;;;;;;;1999.90;999.90;;;;;;;;;;5047044;28;20502;-72
2022/09/24 07:08:38;;;;;;;1999.90;999.90;;;;;;;;;;5042200;28;20520;-72
2022/09/24 07:11:06;;;;;;;1999.90;999.90;;;;;;;;;;5041174;28;20987;-72
2022/09/24 07:13:34;;;;;;;1999.90;999.90;;;;;;;;;;5046769;28;20402;-71
2022/09/24 07:16:03;;;;;;;1999.90;999.90;;;;;;;;;;5058232;28;20395;-71
2022/09/24 07:18:31;;;;;;;1999.90;999.90;;;;;;;;;;5047273;28;20504;-72
2022/09/24 07:20:58;;;;;;;1999.90;999.90;;;;;;;;;;5043938;28;20433;-71
2022/09/24 07:23:28;;;;;;;1999.90;999.90;;;;;;;;;;5042637;28;20454;-72
2022/09/24 07:25:56;;;;;;;1999.90;999.90;;;;;;;;;;5039762;28;20439;-71
2022/09/24 07:28:24;;;;;;;1999.90;999.90;;;;;;;;;;5043656;28;21721;-71
2022/09/24 07:31:01;;;;;;;1999.90;999.90;;;;;;;;;;5042307;28;20426;-71
2022/09/24 07:33:31;;;;;;;1999.90;999.90;;;;;;;;;;5042152;28;20794;-70
2022/09/24 07:35:59;;;;;;;1999.90;999.90;;;;;;;;;;5042499;28;20419;-71
2022/09/24 07:38:27;;;;;;;1999.90;999.90;;;;;;;;;;5046734;28;21428;-71
2022/09/24 07:40:57;;;;;;;1999.90;999.90;;;;;;;;;;5040659;28;20412;-71
2022/09/24 07:43:25;;;;;;;1999.90;999.90;;;;;;;;;;5043789;28;20471;-70
2022/09/24 07:45:54;;;;;;;1999.90;999.90;;;;;;;;;;5042167;28;20404;-71
2022/09/24 07:48:22;;;;;;;1999.90;999.90;;;;;;;;;;5041744;28;20430;-71
2022/09/24 07:50:51;;;;;;;1999.90;999.90;;;;;;;;;;5041704;28;20878;-72
2022/09/24 07:53:20;;;;;;;1999.90;999.90;;;;;;;;;;5056865;28;20388;-72
2022/09/24 07:55:48;;;;;;;1999.90;999.90;;;;;;;;;;5041387;28;20822;-72
2022/09/24 07:58:16;;;;;;;1999.90;999.90;;;;;;;;;;5064894;28;20227;-72
2022/09/24 08:00:45;;;;;;;1999.90;999.90;;;;;;;;;;5030544;28;20312;-72
2022/09/24 08:03:13;;;;;;;1999.90;999.90;;;;;;;;;;5042506;28;20423;-72
2022/09/24 08:05:45;;;;;;;1999.90;999.90;;;;;;;;;;5051181;28;20400;-71
2022/09/24 08:08:14;;;;;;;1999.90;999.90;;;;;;;;;;5042135;28;20406;-71
2022/09/24 08:10:42;;;;;;;1999.90;999.90;;;;;;;;;;5042570;28;20416;-71
2022/09/24 08:13:10;;;;;;;1999.90;999.90;;;;;;;;;;5038641;28;20413;-71
2022/09/24 08:15:38;;;;;;;1999.90;999.90;;;;;;;;;;5041727;28;20389;-71
2022/09/24 08:18:06;;;;;;;1999.90;999.90;;;;;;;;;;5039210;28;20416;-72
2022/09/24 08:20:36;;;;;;;1999.90;999.90;;;;;;;;;;5054942;28;20420;-71
2022/09/24 08:23:04;;;;;;;1999.90;999.90;;;;;;;;;;5039411;28;20416;-71
2022/09/24 08:25:34;;;;;;;1999.90;999.90;;;;;;;;;;5040295;28;20894;-71
2022/09/24 08:28:02;;;;;;;1999.90;999.90;;;;;;;;;;5039666;28;20475;-71
2022/09/24 08:30:29;;;;;;;1999.90;999.90;;;;;;;;;;5036831;28;20887;-71
2022/09/24 08:32:57;;;;;;;1999.90;999.90;;;;;;;;;;5038302;28;20403;-71
2022/09/24 08:35:25;;;;;;;1999.90;999.90;;;;;;;;;;5039574;28;20426;-71
2022/09/24 08:37:53;;;;;;;1999.90;999.90;;;;;;;;;;5042712;28;20891;-71
2022/09/24 08:40:23;;;;;;;1999.90;999.90;;;;;;;;;;5041157;28;20933;-71
2022/09/24 08:42:56;;;;;;;1999.90;999.90;;;;;;;;;;5041480;28;20458;-71
2022/09/24 08:48:12;;;;;;;1999.90;999.90;;;;;;;;;;5039044;28;20945;-72
2022/09/24 08:50:44;;;;;;;1999.90;999.90;;;;;;;;;;5037947;28;20404;-71
2022/09/24 08:53:16;;;;;;;1999.90;999.90;;;;;;;;;;5031749;28;20422;-71
2022/09/24 08:55:46;;;;;;;1999.90;999.90;;;;;;;;;;5022303;28;20466;-72
2022/09/24 08:58:25;;;;;;;1999.90;999.90;;;;;;;;;;5034056;28;21284;-71
2022/09/24 09:00:57;;;;;;;1999.90;999.90;;;;;;;;;;5035143;28;20400;-72
2022/09/24 09:03:30;;;;;;;1999.90;999.90;;;;;;;;;;5025963;28;20404;-72
2022/09/24 09:06:01;;;;;;;1999.90;999.90;;;;;;;;;;5035996;28;20392;-69
2022/09/24 09:08:33;;;;;;;1999.90;999.90;;;;;;;;;;5025257;28;20866;-72
2022/09/24 09:11:23;;;;;;;1999.90;999.90;;;;;;;;;;5042542;28;20480;-71
2022/09/24 09:13:56;;;;;;;1999.90;999.90;;;;;;;;;;5027970;28;20400;-72
2022/09/24 09:16:26;;;;;;;1999.90;999.90;;;;;;;;;;5022831;28;20531;-73
2022/09/24 09:18:57;;;;;;;1999.90;999.90;;;;;;;;;;5030448;28;20899;-74
2022/09/24 09:21:27;;;;;;;1999.90;999.90;;;;;;;;;;5033576;28;20406;-72
2022/09/24 09:23:56;;;;;;;1999.90;999.90;;;;;;;;;;5035949;28;20497;-71
2022/09/24 09:26:26;;;;;;;1999.90;999.90;;;;;;;;;;5018543;28;20384;-71
2022/09/24 09:28:57;;;;;;;1999.90;999.90;;;;;;;;;;5037820;28;20450;-72
2022/09/24 09:31:31;;;;;;;1999.90;999.90;;;;;;;;;;5031618;28;20525;-72
2022/09/24 09:34:15;;;;;;;1999.90;999.90;;;;;;;;;;5036271;28;20499;-72
2022/09/24 09:36:50;;;;;;;1999.90;999.90;;;;;;;;;;5029578;28;20409;-72
2022/09/24 09:39:28;;;;;;;1999.90;999.90;;;;;;;;;;5022235;28;20415;-72
2022/09/24 09:42:01;;;;;;;1999.90;999.90;;;;;;;;;;5038408;28;20426;-72
2022/09/24 09:44:31;;;;;;;1999.90;999.90;;;;;;;;;;5037452;28;20899;-72
2022/09/24 09:47:03;;;;;;;1999.90;999.90;;;;;;;;;;5038464;28;20390;-71
2022/09/24 09:49:33;;;;;;;1999.90;999.90;;;;;;;;;;5041582;28;20408;-71
2022/09/24 09:52:04;;;;;;;1999.90;999.90;;;;;;;;;;5039987;28;20429;-70
2022/09/24 09:54:35;;;;;;;1999.90;999.90;;;;;;;;;;5041261;28;20838;-71
2022/09/24 09:57:04;;;;;;;1999.90;999.90;;;;;;;;;;5042563;28;21516;-72
2022/09/24 09:59:34;;;;;;;1999.90;999.90;;;;;;;;;;5044866;28;20234;-72
2022/09/24 10:02:02;;;;;;;1999.90;999.90;;;;;;;;;;5045966;28;21017;-70
2022/09/24 10:04:36;;;;;;;1999.90;999.90;;;;;;;;;;5040257;28;20394;-73
2022/09/24 10:07:05;;;;;;;1999.90;999.90;;;;;;;;;;5044271;28;20223;-71
2022/09/24 10:09:33;;;;;;;1999.90;999.90;;;;;;;;;;5047846;28;20260;-72
2022/09/24 10:12:08;;;;;;;1999.90;999.90;;;;;;;;;;5046152;28;20294;-72
2022/09/24 10:14:37;;;;;;;1999.90;999.90;;;;;;;;;;5043847;28;20232;-73
2022/09/24 10:17:05;;;;;;;1999.90;999.90;;;;;;;;;;5036464;28;20404;-72
2022/09/24 10:19:35;;;;;;;1999.90;999.90;;;;;;;;;;5044321;28;20403;-72
2022/09/24 10:22:08;;;;;;;1999.90;999.90;;;;;;;;;;5042639;28;20946;-74
2022/09/24 10:24:37;;;;;;;1999.90;999.90;;;;;;;;;;5042992;28;20879;-72
2022/09/24 10:27:10;;;;;;;1999.90;999.90;;;;;;;;;;5042618;28;20824;-71
2022/09/24 10:32:25;;;;;;;1999.90;999.90;;;;;;;;;;5040340;28;20869;-72
2022/09/24 10:34:56;;;;;;;1999.90;999.90;;;;;;;;;;5042465;28;20434;-71
2022/09/24 10:37:24;;;;;;;1999.90;999.90;;;;;;;;;;5042955;28;20399;-72
2022/09/24 10:39:59;;;;;;;1999.90;999.90;;;;;;;;;;5046206;28;20501;-72
2022/09/24 10:42:28;;;;;;;1999.90;999.90;;;;;;;;;;5041493;28;20400;-72
2022/09/24 10:44:59;;;;;;;1999.90;999.90;;;;;;;;;;5039044;28;20420;-71
2022/09/24 10:47:33;;;;;;;1999.90;999.90;;;;;;;;;;5044223;28;20387;-71
2022/09/24 10:50:11;;;;;;;1999.90;999.90;;;;;;;;;;5039483;28;20420;-72
2022/09/24 10:52:47;;;;;;;1999.90;999.90;;;;;;;;;;5037680;28;20400;-72
2022/09/24 10:55:19;;;;;;;1999.90;999.90;;;;;;;;;;5038968;28;20887;-72
2022/09/24 10:57:55;;;;;;;1999.90;999.90;;;;;;;;;;5023899;28;20399;-73
2022/09/24 11:00:26;;;;;;;1999.90;999.90;;;;;;;;;;5038902;28;20435;-72
2022/09/24 11:03:03;;;;;;;1999.90;999.90;;;;;;;;;;5043643;28;20369;-72
2022/09/24 11:05:33;;;;;;;1999.90;999.90;;;;;;;;;;5035976;28;20519;-72
2022/09/24 11:08:08;;;;;;;1999.90;999.90;;;;;;;;;;5035085;28;21772;-73
2022/09/24 11:10:55;;;;;;;1999.90;999.90;;;;;;;;;;5035547;28;20400;-71
2022/09/24 11:13:26;;;;;;;1999.90;999.90;;;;;;;;;;5033618;28;20413;-70
2022/09/24 11:16:05;;;;;;;1999.90;999.90;;;;;;;;;;5039238;28;20399;-70
2022/09/24 11:18:37;;;;;;;1999.90;999.90;;;;;;;;;;5038965;28;20977;-71
2022/09/24 11:21:11;;;;;;;1999.90;999.90;;;;;;;;;;5033003;28;20492;-71
2022/09/24 11:23:49;;;;;;;1999.90;999.90;;;;;;;;;;5037818;28;20236;-71
2022/09/24 11:26:24;;;;;;;1999.90;999.90;;;;;;;;;;5040795;28;20243;-69
2022/09/24 11:29:04;;;;;;;1999.90;999.90;;;;;;;;;;5039354;28;20232;-72
2022/09/24 11:31:40;;;;;;;1999.90;999.90;;;;;;;;;;5038184;28;20243;-70
2022/09/24 11:34:29;;;;;;;1999.90;999.90;;;;;;;;;;5031447;28;20228;-70
2022/09/24 11:37:01;;;;;;;1999.90;999.90;;;;;;;;;;5030188;28;20263;-69
2022/09/24 11:39:34;;;;;;;1999.90;999.90;;;;;;;;;;5035042;28;20929;-70
2022/09/24 11:42:07;;;;;;;1999.90;999.90;;;;;;;;;;5033952;28;20229;-69
2022/09/24 11:44:53;;;;;;;1999.90;999.90;;;;;;;;;;5039149;28;20298;-68
2022/09/24 11:47:29;;;;;;;1999.90;999.90;;;;;;;;;;5033572;28;20236;-68
2022/09/24 11:50:04;;;;;;;1999.90;999.90;;;;;;;;;;5038959;28;20229;-69
2022/09/24 11:52:35;;;;;;;1999.90;999.90;;;;;;;;;;5040758;28;20231;-69
2022/09/24 11:55:05;;;;;;;1999.90;999.90;;;;;;;;;;5041609;28;20631;-69
2022/09/24 11:57:34;;;;;;;1999.90;999.90;;;;;;;;;;5042839;28;20232;-69
2022/09/24 12:00:06;;;;;;;1999.90;999.90;;;;;;;;;;5040966;28;20225;-69
2022/09/24 12:02:37;;;;;;;1999.90;999.90;;;;;;;;;;5041854;28;20228;-69
2022/09/24 12:05:06;;;;;;;1999.90;999.90;;;;;;;;;;5044494;28;20279;-69
2022/09/24 12:07:38;;;;;;;1999.90;999.90;;;;;;;;;;5040460;28;20770;-69
2022/09/24 12:10:17;;;;;;;1999.90;999.90;;;;;;;;;;5038454;28;20303;-70
2022/09/24 12:12:47;;;;;;;1999.90;999.90;;;;;;;;;;5043627;28;20264;-69
2022/09/24 12:15:18;;;;;;;1999.90;999.90;;;;;;;;;;5047745;28;20235;-69
2022/09/24 12:17:51;;;;;;;1999.90;999.90;;;;;;;;;;5050301;28;20263;-69
2022/09/24 12:20:20;;;;;;;1999.90;999.90;;;;;;;;;;5046209;28;20311;-70
2022/09/24 12:22:50;;;;;;;1999.90;999.90;;;;;;;;;;5047958;28;21015;-76
2022/09/24 12:25:17;;;;;;;1999.90;999.90;;;;;;;;;;5051162;28;20234;-75
2022/09/24 12:27:46;;;;;;;1999.90;999.90;;;;;;;;;;5045923;28;20228;-75
2022/09/24 12:33:17;;;;;;;1999.90;999.90;;;;;;;;;;5048408;28;20236;-74
2022/09/24 12:36:00;;;;;;;1999.90;999.90;;;;;;;;;;5047083;28;20286;-69
2022/09/24 12:38:32;;;;;;;1999.90;999.90;;;;;;;;;;5045109;28;20224;-70
2022/09/24 12:41:18;;;;;;;1999.90;999.90;;;;;;;;;;5046797;28;20235;-70
2022/09/24 12:43:48;;;;;;;1999.90;999.90;;;;;;;;;;5044711;28;20589;-70
2022/09/24 12:46:17;;;;;;;1999.90;999.90;;;;;;;;;;5063893;28;20227;-71
2022/09/24 12:48:48;;;;;;;1999.90;999.90;;;;;;;;;;5052758;28;20319;-70
2022/09/24 12:51:21;;;;;;;1999.90;999.90;;;;;;;;;;5051607;28;20224;-71
2022/09/24 12:53:56;;;;;;;1999.90;999.90;;;;;;;;;;5053586;28;20228;-71
2022/09/24 12:56:25;;;;;;;1999.90;999.90;;;;;;;;;;5044245;28;21124;-70
2022/09/24 12:58:53;;;;;;;1999.90;999.90;;;;;;;;;;5046863;28;20291;-73
2022/09/24 13:01:29;;;;;;;1999.90;999.90;;;;;;;;;;5055836;28;20224;-74
2022/09/24 13:04:24;;;;;;;1999.90;999.90;;;;;;;;;;5057942;28;20315;-74
2022/09/24 13:06:52;;;;;;;1999.90;999.90;;;;;;;;;;5054858;28;20235;-75
2022/09/24 13:09:32;;;;;;;1999.90;999.90;;;;;;;;;;5054615;28;20228;-75
2022/09/24 13:12:05;;;;;;;1999.90;999.90;;;;;;;;;;5054858;28;20235;-74
2022/09/24 13:14:34;;;;;;;1999.90;999.90;;;;;;;;;;5055064;28;20719;-74
2022/09/24 13:17:05;;;;;;;1999.90;999.90;;;;;;;;;;5056538;28;20319;-72
2022/09/24 13:19:39;;;;;;;1999.90;999.90;;;;;;;;;;5053563;28;20243;-73
2022/09/24 13:22:17;;;;;;;1999.90;999.90;;;;;;;;;;5053886;28;20744;-73
2022/09/24 13:24:46;;;;;;;1999.90;999.90;;;;;;;;;;5051452;28;20238;-73
2022/09/24 13:27:21;;;;;;;1999.90;999.90;;;;;;;;;;5053914;28;20225;-73
2022/09/24 13:30:00;;;;;;;1999.90;999.90;;;;;;;;;;5055342;28;20314;-73
2022/09/24 13:32:28;;;;;;;1999.90;999.90;;;;;;;;;;5055620;28;20738;-73
2022/09/24 13:34:58;;;;;;;1999.90;999.90;;;;;;;;;;5055306;28;20252;-73
2022/09/24 13:37:33;;;;;;;1999.90;999.90;;;;;;;;;;5054584;28;20694;-73
2022/09/24 13:40:03;;;;;;;1999.90;999.90;;;;;;;;;;5039769;28;20266;-73
2022/09/24 13:42:33;;;;;;;1999.90;999.90;;;;;;;;;;5057836;28;20232;-73
2022/09/24 13:45:02;;;;;;;1999.90;999.90;;;;;;;;;;5057817;28;20312;-73
2022/09/24 13:47:37;;;;;;;1999.90;999.90;;;;;;;;;;5059716;28;20227;-74
2022/09/24 13:50:13;;;;;;;1999.90;999.90;;;;;;;;;;5056079;28;20783;-73
2022/09/24 13:52:42;;;;;;;1999.90;999.90;;;;;;;;;;5056953;28;20271;-73
2022/09/24 13:55:15;;;;;;;1999.90;999.90;;;;;;;;;;5053546;28;20314;-73
2022/09/24 13:57:44;;;;;;;1999.90;999.90;;;;;;;;;;5058118;28;20286;-73
2022/09/24 14:00:18;;;;;;;1999.90;999.90;;;;;;;;;;5052072;28;20232;-73
2022/09/24 14:02:52;;;;;;;1999.90;999.90;;;;;;;;;;5054189;28;20356;-73
2022/09/24 14:05:21;;;;;;;1999.90;999.90;;;;;;;;;;5055446;28;20642;-73
2022/09/24 14:07:57;;;;;;;1999.90;999.90;;;;;;;;;;5052574;28;20228;-73
2022/09/24 14:10:24;;;;;;;1999.90;999.90;;;;;;;;;;5059388;28;20232;-73
2022/09/24 14:12:59;;;;;;;1999.90;999.90;;;;;;;;;;5053401;28;20300;-73